createdAt,value
2019-04-03T00:00:36.740Z,24.55
2019-04-03T00:01:40.031Z,24.64
2019-04-03T00:02:41.466Z,24.71
2019-04-03T00:03:42.864Z,24.63
2019-04-03T00:04:44.280Z,24.58
2019-04-03T00:05:45.871Z,24.53
2019-04-03T00:06:47.267Z,24.69
2019-04-03T00:07:48.659Z,24.79
2019-04-03T00:08:50.186Z,24.71
2019-04-03T00:09:51.603Z,24.64
2019-04-03T00:10:53.197Z,24.68
2019-04-03T00:11:54.684Z,24.66
2019-04-03T00:12:56.200Z,24.71
2019-04-03T00:13:57.617Z,24.69
2019-04-03T00:15:00.268Z,24.80
2019-04-03T00:16:01.841Z,24.61
2019-04-03T00:17:03.560Z,24.72
2019-04-03T00:18:04.990Z,24.72
2019-04-03T00:19:06.408Z,24.58
2019-04-03T00:20:07.833Z,24.72
2019-04-03T00:21:09.337Z,24.69
2019-04-03T00:22:11.002Z,24.64
2019-04-03T00:23:12.529Z,24.67
2019-04-03T00:24:14.109Z,24.66
2019-04-03T00:25:15.736Z,24.75
2019-04-03T00:26:17.400Z,24.79
2019-04-03T00:27:18.800Z,24.79
2019-04-03T00:28:20.691Z,24.81
2019-04-03T00:29:23.711Z,24.76
2019-04-03T00:30:25.100Z,24.75
2019-04-03T00:31:26.529Z,24.83
2019-04-03T00:32:27.947Z,24.88
2019-04-03T00:33:29.376Z,24.86
2019-04-03T00:34:30.817Z,24.82
2019-04-03T00:35:32.293Z,24.81
2019-04-03T00:36:33.708Z,24.77
2019-04-03T00:37:35.153Z,24.80
2019-04-03T00:38:36.774Z,24.81
2019-04-03T00:39:38.194Z,24.80
2019-04-03T00:40:39.642Z,24.73
2019-04-03T00:41:41.199Z,24.84
2019-04-03T00:42:42.683Z,24.85
2019-04-03T00:43:44.108Z,24.82
2019-04-03T00:44:45.669Z,24.87
2019-04-03T00:45:47.164Z,24.80
2019-04-03T00:46:49.602Z,24.81
2019-04-03T00:47:51.027Z,24.77
2019-04-03T00:48:52.389Z,24.83
2019-04-03T00:49:56.205Z,24.86
2019-04-03T00:50:58.137Z,24.83
2019-04-03T00:51:59.789Z,24.80
2019-04-03T00:53:01.218Z,24.88
2019-04-03T00:54:02.834Z,24.90
2019-04-03T00:55:05.204Z,24.83
2019-04-03T00:56:06.603Z,24.80
2019-04-03T00:57:08.132Z,24.87
2019-04-03T00:58:29.620Z,24.83
2019-04-03T00:59:31.061Z,24.76
2019-04-03T01:00:32.430Z,24.65
2019-04-03T01:01:33.865Z,24.74
2019-04-03T01:02:35.386Z,24.73
2019-04-03T01:03:37.309Z,24.68
2019-04-03T01:04:38.690Z,24.56
2019-04-03T01:05:40.091Z,24.69
2019-04-03T01:06:41.674Z,24.65
2019-04-03T01:07:43.111Z,24.71
2019-04-03T01:08:44.501Z,24.72
2019-04-03T01:09:46.026Z,24.65
2019-04-03T01:10:47.540Z,24.70
2019-04-03T01:11:48.937Z,24.72
2019-04-03T01:12:50.546Z,24.72
2019-04-03T01:13:52.201Z,24.76
2019-04-03T01:14:53.666Z,24.79
2019-04-03T01:15:58.075Z,24.73
2019-04-03T01:16:59.484Z,24.69
2019-04-03T01:18:01.068Z,24.75
2019-04-03T01:19:05.169Z,24.80
2019-04-03T01:20:06.933Z,24.81
2019-04-03T01:21:08.395Z,24.88
2019-04-03T01:22:09.839Z,24.90
2019-04-03T01:23:11.247Z,24.85
2019-04-03T01:24:12.764Z,24.95
2019-04-03T01:25:14.213Z,24.93
2019-04-03T01:26:15.687Z,24.90
2019-04-03T01:27:17.244Z,24.92
2019-04-03T01:28:18.781Z,24.87
2019-04-03T01:29:20.310Z,24.90
2019-04-03T01:30:21.717Z,24.76
2019-04-03T01:31:23.214Z,24.86
2019-04-03T01:32:24.748Z,24.89
2019-04-03T01:33:26.162Z,24.88
2019-04-03T01:34:27.612Z,24.89
2019-04-03T01:35:29.060Z,24.92
2019-04-03T01:36:30.499Z,24.94
2019-04-03T01:37:31.936Z,24.92
2019-04-03T01:38:33.342Z,24.91
2019-04-03T01:39:34.755Z,24.83
2019-04-03T01:40:36.198Z,24.75
2019-04-03T01:41:37.678Z,24.89
2019-04-03T01:42:39.167Z,24.92
2019-04-03T01:43:40.655Z,24.88
2019-04-03T01:44:42.064Z,24.90
2019-04-03T01:45:43.469Z,24.82
2019-04-03T01:46:44.889Z,24.88
2019-04-03T01:47:47.275Z,24.88
2019-04-03T01:48:48.672Z,24.90
2019-04-03T01:49:50.104Z,24.84
2019-04-03T01:50:51.519Z,24.90
2019-04-03T01:51:53.044Z,24.87
2019-04-03T01:52:54.451Z,24.86
2019-04-03T01:53:55.878Z,24.88
2019-04-03T01:54:57.260Z,24.92
2019-04-03T01:55:58.698Z,24.85
2019-04-03T01:57:00.281Z,24.90
2019-04-03T01:58:01.754Z,24.89
2019-04-03T01:59:06.091Z,24.93
2019-04-03T02:00:07.510Z,24.91
2019-04-03T02:01:09.676Z,24.86
2019-04-03T02:02:11.194Z,24.79
2019-04-03T02:03:12.707Z,24.84
2019-04-03T02:04:14.139Z,24.82
2019-04-03T02:05:15.508Z,24.84
2019-04-03T02:06:16.943Z,24.87
2019-04-03T02:07:18.420Z,24.89
2019-04-03T02:08:19.821Z,24.92
2019-04-03T02:09:21.241Z,24.90
2019-04-03T02:10:24.356Z,24.93
2019-04-03T02:11:27.565Z,24.84
2019-04-03T02:12:28.982Z,24.85
2019-04-03T02:13:30.454Z,24.88
2019-04-03T02:14:32.054Z,24.85
2019-04-03T02:15:33.459Z,24.84
2019-04-03T02:16:34.942Z,24.78
2019-04-03T02:17:36.457Z,24.77
2019-04-03T02:18:37.849Z,24.80
2019-04-03T02:19:39.356Z,24.82
2019-04-03T02:20:40.802Z,24.71
2019-04-03T02:21:42.192Z,24.77
2019-04-03T02:22:43.583Z,24.80
2019-04-03T02:23:44.978Z,24.88
2019-04-03T02:24:46.615Z,24.88
2019-04-03T02:25:48.062Z,24.84
2019-04-03T02:26:49.579Z,24.87
2019-04-03T02:27:50.981Z,24.91
2019-04-03T02:28:52.379Z,24.85
2019-04-03T02:29:53.933Z,24.90
2019-04-03T02:30:55.389Z,24.88
2019-04-03T02:31:57.071Z,24.83
2019-04-03T02:32:58.624Z,24.83
2019-04-03T02:34:02.500Z,24.90
2019-04-03T02:35:08.116Z,24.90
2019-04-03T02:36:12.479Z,24.89
2019-04-03T02:37:16.567Z,24.92
2019-04-03T02:38:21.411Z,24.96
2019-04-03T02:39:20.824Z,24.95
2019-04-03T02:40:22.249Z,24.91
2019-04-03T02:41:23.633Z,24.96
2019-04-03T02:42:25.133Z,25.01
2019-04-03T02:43:26.556Z,24.96
2019-04-03T02:44:28.124Z,24.89
2019-04-03T02:45:29.635Z,24.77
2019-04-03T02:46:31.128Z,24.74
2019-04-03T02:47:33.886Z,24.80
2019-04-03T02:48:38.302Z,24.88
2019-04-03T02:49:41.448Z,24.85
2019-04-03T02:50:46.554Z,24.84
2019-04-03T02:51:46.311Z,24.87
2019-04-03T02:52:48.839Z,24.92
2019-04-03T02:53:50.454Z,24.80
2019-04-03T02:54:52.068Z,24.82
2019-04-03T02:55:53.630Z,24.87
2019-04-03T02:56:56.302Z,24.94
2019-04-03T02:57:57.710Z,24.94
2019-04-03T02:58:59.112Z,24.88
2019-04-03T03:00:01.036Z,24.88
2019-04-03T03:01:05.651Z,24.87
2019-04-03T03:02:06.000Z,24.93
2019-04-03T03:03:07.506Z,24.92
2019-04-03T03:04:09.582Z,24.89
2019-04-03T03:05:11.348Z,24.88
2019-04-03T03:06:12.926Z,24.87
2019-04-03T03:07:14.442Z,24.87
2019-04-03T03:08:15.966Z,24.92
2019-04-03T03:09:17.684Z,24.79
2019-04-03T03:10:20.213Z,24.82
2019-04-03T03:11:24.216Z,24.87
2019-04-03T03:12:27.826Z,24.86
2019-04-03T03:13:33.528Z,24.77
2019-04-03T03:14:39.269Z,24.78
2019-04-03T03:15:41.617Z,24.85
2019-04-03T03:16:43.941Z,24.88
2019-04-03T03:17:45.357Z,24.85
2019-04-03T03:18:46.973Z,24.82
2019-04-03T03:19:49.051Z,24.83
2019-04-03T03:20:50.887Z,24.82
2019-04-03T03:21:56.039Z,24.85
2019-04-03T03:22:58.413Z,24.85
2019-04-03T03:24:00.135Z,24.76
2019-04-03T03:25:02.446Z,24.83
2019-04-03T03:26:05.513Z,24.87
2019-04-03T03:27:09.481Z,24.92
2019-04-03T03:28:14.464Z,24.89
2019-04-03T03:29:20.082Z,24.92
2019-04-03T03:30:37.208Z,24.87
2019-04-03T03:31:57.461Z,24.88
2019-04-03T03:32:32.788Z,24.93
2019-04-03T03:33:36.421Z,24.94
2019-04-03T03:34:50.834Z,24.96
2019-04-03T03:35:43.889Z,24.93
2019-04-03T03:36:42.943Z,24.94
2019-04-03T03:37:45.498Z,24.88
2019-04-03T03:38:47.485Z,24.97
2019-04-03T03:39:50.142Z,24.93
2019-04-03T03:40:52.152Z,24.90
2019-04-03T03:41:57.544Z,24.81
2019-04-03T03:42:59.260Z,24.89
2019-04-03T03:44:01.035Z,24.89
2019-04-03T03:45:05.356Z,24.94
2019-04-03T03:46:07.201Z,24.97
2019-04-03T03:47:09.786Z,24.98
2019-04-03T03:48:11.434Z,24.99
2019-04-03T03:49:16.299Z,24.96
2019-04-03T03:50:23.891Z,24.99
2019-04-03T03:51:24.330Z,24.97
2019-04-03T03:52:25.955Z,24.87
2019-04-03T03:53:27.956Z,24.96
2019-04-03T03:54:29.965Z,24.96
2019-04-03T03:55:31.591Z,24.87
2019-04-03T03:56:33.092Z,24.84
2019-04-03T03:57:39.476Z,24.89
2019-04-03T03:58:39.518Z,24.91
2019-04-03T03:59:41.820Z,24.80
2019-04-03T04:00:43.337Z,24.87
2019-04-03T04:01:44.951Z,24.92
2019-04-03T04:02:46.458Z,24.92
2019-04-03T04:03:47.971Z,24.83
2019-04-03T04:04:49.923Z,24.89
2019-04-03T04:05:54.561Z,24.84
2019-04-03T04:06:54.900Z,24.85
2019-04-03T04:07:56.268Z,24.80
2019-04-03T04:08:59.011Z,24.84
2019-04-03T04:10:00.462Z,24.87
2019-04-03T04:11:02.110Z,24.83
2019-04-03T04:12:06.296Z,24.83
2019-04-03T04:13:07.230Z,24.85
2019-04-03T04:14:09.923Z,24.83
2019-04-03T04:15:11.415Z,24.81
2019-04-03T04:16:13.012Z,24.72
2019-04-03T04:17:17.337Z,24.79
2019-04-03T04:18:18.212Z,24.81
2019-04-03T04:19:20.393Z,24.78
2019-04-03T04:20:22.153Z,24.74
2019-04-03T04:21:24.639Z,24.69
2019-04-03T04:22:27.515Z,24.73
2019-04-03T04:23:29.441Z,24.73
2019-04-03T04:24:30.878Z,24.74
2019-04-03T04:25:33.258Z,24.78
2019-04-03T04:26:35.036Z,24.79
2019-04-03T04:27:38.821Z,24.74
2019-04-03T04:28:41.093Z,24.67
2019-04-03T04:29:42.521Z,24.69
2019-04-03T04:30:47.415Z,24.71
2019-04-03T04:31:48.836Z,24.77
2019-04-03T04:32:50.259Z,24.74
2019-04-03T04:33:51.817Z,24.78
2019-04-03T04:34:53.284Z,24.78
2019-04-03T04:35:54.665Z,24.83
2019-04-03T04:36:56.157Z,24.84
2019-04-03T04:37:57.638Z,24.85
2019-04-03T04:38:59.112Z,24.77
2019-04-03T04:40:00.617Z,24.85
2019-04-03T04:41:02.267Z,24.75
2019-04-03T04:42:04.680Z,24.77
2019-04-03T04:43:08.215Z,24.75
2019-04-03T04:44:10.274Z,24.76
2019-04-03T04:45:12.514Z,24.80
2019-04-03T04:46:14.097Z,24.73
2019-04-03T04:47:15.740Z,24.72
2019-04-03T04:48:20.371Z,24.69
2019-04-03T04:49:20.834Z,24.72
2019-04-03T04:50:25.361Z,24.79
2019-04-03T04:51:27.068Z,24.81
2019-04-03T04:52:28.470Z,24.78
2019-04-03T04:53:30.243Z,24.84
2019-04-03T04:54:31.814Z,24.77
2019-04-03T04:55:34.979Z,24.74
2019-04-03T04:56:37.699Z,24.81
2019-04-03T04:57:41.005Z,24.81
2019-04-03T04:58:43.677Z,24.78
2019-04-03T04:59:45.584Z,24.82
2019-04-03T05:00:47.803Z,24.82
2019-04-03T05:01:49.608Z,24.83
2019-04-03T05:02:51.491Z,24.83
2019-04-03T05:03:54.124Z,24.79
2019-04-03T05:04:56.651Z,24.76
2019-04-03T05:05:58.648Z,24.78
2019-04-03T05:07:00.587Z,24.75
2019-04-03T05:08:02.656Z,24.76
2019-04-03T05:09:05.424Z,24.67
2019-04-03T05:10:07.737Z,24.61
2019-04-03T05:11:09.332Z,24.57
2019-04-03T05:12:10.764Z,24.48
2019-04-03T05:13:12.245Z,24.50
2019-04-03T05:14:13.646Z,24.41
2019-04-03T05:15:15.296Z,24.33
2019-04-03T05:16:19.788Z,24.22
2019-04-03T05:17:20.740Z,24.12
2019-04-03T05:18:22.312Z,24.02
2019-04-03T05:19:24.840Z,24.00
2019-04-03T05:20:26.253Z,23.88
2019-04-03T05:21:27.811Z,23.81
2019-04-03T05:22:29.450Z,23.76
2019-04-03T05:23:31.160Z,23.68
2019-04-03T05:24:32.638Z,23.54
2019-04-03T05:25:34.487Z,23.45
2019-04-03T05:26:35.865Z,23.40
2019-04-03T05:27:37.282Z,23.34
2019-04-03T05:28:38.704Z,23.22
2019-04-03T05:29:40.376Z,23.06
2019-04-03T05:30:42.062Z,22.95
2019-04-03T05:31:43.534Z,22.85
2019-04-03T05:32:44.937Z,22.81
2019-04-03T05:33:46.432Z,22.74
2019-04-03T05:34:48.008Z,22.72
2019-04-03T05:35:49.430Z,22.63
2019-04-03T05:36:50.849Z,22.53
2019-04-03T05:37:52.274Z,22.50
2019-04-03T05:38:54.017Z,22.40
2019-04-03T05:39:56.127Z,22.36
2019-04-03T05:40:57.662Z,22.32
2019-04-03T05:41:59.798Z,22.30
2019-04-03T05:43:01.765Z,22.36
2019-04-03T05:44:03.654Z,22.38
2019-04-03T05:45:05.890Z,22.36
2019-04-03T05:46:07.452Z,22.26
2019-04-03T05:47:08.891Z,22.18
2019-04-03T05:48:12.675Z,22.13
2019-04-03T05:49:13.631Z,22.05
2019-04-03T05:50:15.127Z,21.97
2019-04-03T05:51:16.538Z,21.96
2019-04-03T05:52:18.329Z,21.86
2019-04-03T05:53:19.799Z,21.81
2019-04-03T05:54:21.389Z,21.82
2019-04-03T05:55:22.876Z,21.75
2019-04-03T05:56:24.302Z,21.70
2019-04-03T05:57:28.560Z,21.72
2019-04-03T05:58:29.020Z,21.67
2019-04-03T05:59:32.747Z,21.70
2019-04-03T06:00:33.811Z,21.64
2019-04-03T06:01:35.321Z,21.60
2019-04-03T06:02:36.823Z,21.63
2019-04-03T06:03:44.279Z,21.60
2019-04-03T06:04:41.926Z,21.60
2019-04-03T06:05:44.027Z,21.57
2019-04-03T06:06:47.231Z,21.59
2019-04-03T06:07:49.820Z,21.56
2019-04-03T06:08:51.987Z,21.55
2019-04-03T06:09:53.872Z,21.60
2019-04-03T06:10:56.795Z,21.55
2019-04-03T06:11:58.259Z,21.56
2019-04-03T06:12:59.746Z,21.56
2019-04-03T06:14:01.260Z,21.55
2019-04-03T06:15:05.252Z,21.58
2019-04-03T06:16:06.660Z,21.56
2019-04-03T06:17:08.048Z,21.52
2019-04-03T06:18:09.541Z,21.51
2019-04-03T06:19:11.048Z,21.46
2019-04-03T06:20:12.719Z,21.51
2019-04-03T06:21:15.624Z,21.54
2019-04-03T06:22:21.035Z,21.57
2019-04-03T06:23:21.433Z,21.53
2019-04-03T06:24:24.387Z,21.67
2019-04-03T06:25:30.099Z,21.61
2019-04-03T06:26:30.222Z,21.64
2019-04-03T06:27:31.608Z,21.61
2019-04-03T06:28:33.140Z,21.62
2019-04-03T06:29:34.603Z,21.62
2019-04-03T06:30:36.143Z,21.61
2019-04-03T06:31:37.583Z,21.60
2019-04-03T06:32:39.104Z,21.55
2019-04-03T06:33:40.530Z,21.55
2019-04-03T06:34:43.778Z,21.57
2019-04-03T06:35:46.090Z,21.62
2019-04-03T06:36:49.685Z,21.60
2019-04-03T06:37:52.825Z,21.56
2019-04-03T06:38:56.100Z,21.57
2019-04-03T06:39:57.910Z,21.59
2019-04-03T06:40:59.453Z,21.57
2019-04-03T06:42:01.103Z,21.56
2019-04-03T06:43:02.554Z,21.52
2019-04-03T06:44:04.063Z,21.58
2019-04-03T06:45:05.876Z,21.53
2019-04-03T06:46:07.320Z,21.50
2019-04-03T06:47:08.843Z,21.52
2019-04-03T06:48:10.649Z,21.50
2019-04-03T06:49:12.357Z,21.53
2019-04-03T06:50:16.904Z,21.53
2019-04-03T06:51:17.260Z,21.52
2019-04-03T06:52:20.967Z,21.50
2019-04-03T06:53:25.775Z,21.49
2019-04-03T06:54:25.446Z,21.50
2019-04-03T06:55:26.891Z,21.49
2019-04-03T06:56:28.413Z,21.51
2019-04-03T06:57:29.815Z,21.55
2019-04-03T06:58:38.179Z,21.55
2019-04-03T06:59:34.780Z,21.56
2019-04-03T07:00:36.256Z,21.61
2019-04-03T07:01:37.693Z,21.60
2019-04-03T07:02:39.078Z,21.65
2019-04-03T07:03:40.589Z,21.62
2019-04-03T07:04:42.231Z,21.66
2019-04-03T07:05:43.662Z,21.68
2019-04-03T07:06:45.634Z,21.71
2019-04-03T07:07:47.098Z,21.64
2019-04-03T07:08:49.485Z,21.62
2019-04-03T07:09:51.322Z,21.57
2019-04-03T07:10:55.832Z,21.61
2019-04-03T07:11:57.524Z,21.60
2019-04-03T07:13:00.247Z,21.61
2019-04-03T07:14:01.793Z,21.60
2019-04-03T07:15:05.402Z,21.63
2019-04-03T07:16:07.070Z,21.62
2019-04-03T07:17:08.589Z,21.61
2019-04-03T07:18:10.089Z,21.60
2019-04-03T07:19:11.504Z,21.67
2019-04-03T07:20:17.401Z,21.73
2019-04-03T07:21:16.905Z,21.66
2019-04-03T07:22:18.285Z,21.68
2019-04-03T07:23:19.680Z,21.62
2019-04-03T07:24:21.094Z,21.63
2019-04-03T07:25:23.659Z,21.62
2019-04-03T07:26:25.087Z,21.67
2019-04-03T07:27:26.761Z,21.68
2019-04-03T07:28:30.459Z,21.69
2019-04-03T07:29:31.808Z,21.65
2019-04-03T07:30:33.330Z,21.62
2019-04-03T07:31:35.942Z,21.60
2019-04-03T07:32:37.439Z,21.60
2019-04-03T07:33:38.920Z,21.61
2019-04-03T07:34:40.328Z,21.60
2019-04-03T07:35:41.821Z,21.63
2019-04-03T07:36:45.540Z,21.70
2019-04-03T07:37:46.545Z,21.66
2019-04-03T07:38:47.970Z,21.63
2019-04-03T07:39:50.289Z,21.67
2019-04-03T07:40:52.460Z,21.66
2019-04-03T07:41:54.863Z,21.69
2019-04-03T07:42:57.008Z,21.68
2019-04-03T07:43:59.258Z,21.71
2019-04-03T07:45:02.167Z,21.68
2019-04-03T07:46:04.281Z,21.68
2019-04-03T07:47:05.697Z,21.69
2019-04-03T07:48:07.169Z,21.64
2019-04-03T07:49:09.084Z,21.75
2019-04-03T07:50:11.741Z,21.74
2019-04-03T07:51:13.398Z,21.72
2019-04-03T07:52:16.260Z,21.70
2019-04-03T07:53:19.878Z,21.71
2019-04-03T07:54:22.015Z,21.72
2019-04-03T07:55:25.639Z,21.72
2019-04-03T07:56:27.785Z,21.75
2019-04-03T07:57:29.765Z,21.76
2019-04-03T07:58:32.508Z,21.82
2019-04-03T07:59:34.763Z,21.79
2019-04-03T08:00:38.543Z,21.83
2019-04-03T08:01:41.367Z,21.76
2019-04-03T08:02:48.009Z,21.79
2019-04-03T08:03:47.049Z,21.79
2019-04-03T08:04:48.434Z,21.79
2019-04-03T08:05:49.832Z,21.81
2019-04-03T08:06:51.252Z,21.83
2019-04-03T08:07:52.925Z,21.80
2019-04-03T08:09:06.515Z,21.83
2019-04-03T08:09:58.723Z,21.86
2019-04-03T08:11:01.972Z,21.87
2019-04-03T08:12:04.546Z,21.84
2019-04-03T08:13:06.710Z,21.83
2019-04-03T08:14:09.911Z,21.82
2019-04-03T08:15:13.245Z,21.80
2019-04-03T08:16:15.766Z,21.80
2019-04-03T08:17:19.313Z,21.82
2019-04-03T08:18:21.845Z,21.90
2019-04-03T08:19:23.639Z,21.94
2019-04-03T08:20:26.009Z,21.96
2019-04-03T08:21:30.061Z,22.00
2019-04-03T08:22:33.346Z,22.02
2019-04-03T08:23:36.756Z,22.03
2019-04-03T08:24:39.657Z,22.06
2019-04-03T08:25:42.984Z,22.03
2019-04-03T08:26:44.903Z,22.03
2019-04-03T08:27:46.401Z,22.05
2019-04-03T08:28:47.928Z,22.08
2019-04-03T08:29:52.517Z,22.11
2019-04-03T08:30:53.903Z,22.08
2019-04-03T08:31:55.323Z,22.09
2019-04-03T08:32:56.742Z,22.13
2019-04-03T08:33:59.544Z,22.12
2019-04-03T08:35:03.787Z,22.13
2019-04-03T08:36:07.650Z,22.11
2019-04-03T08:37:10.362Z,22.08
2019-04-03T08:38:13.430Z,22.09
2019-04-03T08:39:16.058Z,22.14
2019-04-03T08:40:20.415Z,22.12
2019-04-03T08:41:22.104Z,22.15
2019-04-03T08:42:26.276Z,22.14
2019-04-03T08:43:31.367Z,22.18
2019-04-03T08:44:31.622Z,22.21
2019-04-03T08:45:33.085Z,22.23
2019-04-03T08:46:34.464Z,22.24
2019-04-03T08:47:37.589Z,22.26
2019-04-03T08:48:39.483Z,22.32
2019-04-03T08:49:41.267Z,22.39
2019-04-03T08:50:42.786Z,22.33
2019-04-03T08:51:44.384Z,22.36
2019-04-03T08:52:45.891Z,22.36
2019-04-03T08:53:47.401Z,22.37
2019-04-03T08:54:48.786Z,22.38
2019-04-03T08:55:50.218Z,22.37
2019-04-03T08:56:51.869Z,22.34
2019-04-03T08:57:53.656Z,22.38
2019-04-03T08:58:57.365Z,22.38
2019-04-03T09:00:00.311Z,22.44
2019-04-03T09:01:03.954Z,22.44
2019-04-03T09:02:05.816Z,22.44
2019-04-03T09:03:08.499Z,22.45
2019-04-03T09:04:10.109Z,22.48
2019-04-03T09:05:14.094Z,22.47
2019-04-03T09:06:15.878Z,22.50
2019-04-03T09:07:17.253Z,22.47
2019-04-03T09:08:18.632Z,22.45
2019-04-03T09:09:20.259Z,22.44
2019-04-03T09:10:21.672Z,22.46
2019-04-03T09:11:23.262Z,22.45
2019-04-03T09:12:25.386Z,22.48
2019-04-03T09:13:26.891Z,22.44
2019-04-03T09:14:28.297Z,22.46
2019-04-03T09:15:29.809Z,22.50
2019-04-03T09:16:32.174Z,22.54
2019-04-03T09:17:34.672Z,22.59
2019-04-03T09:18:38.361Z,22.55
2019-04-03T09:19:41.732Z,22.58
2019-04-03T09:20:44.052Z,22.58
2019-04-03T09:21:50.187Z,22.54
2019-04-03T09:22:49.119Z,22.55
2019-04-03T09:23:50.619Z,22.57
2019-04-03T09:24:52.230Z,22.55
2019-04-03T09:25:54.655Z,22.58
2019-04-03T09:26:56.324Z,22.62
2019-04-03T09:27:58.330Z,22.54
2019-04-03T09:28:59.838Z,22.63
2019-04-03T09:30:02.343Z,22.62
2019-04-03T09:31:04.575Z,22.63
2019-04-03T09:32:06.060Z,22.60
2019-04-03T09:33:08.466Z,22.62
2019-04-03T09:34:10.000Z,22.56
2019-04-03T09:35:11.910Z,22.57
2019-04-03T09:36:13.617Z,22.57
2019-04-03T09:37:17.579Z,22.61
2019-04-03T09:38:18.621Z,22.55
2019-04-03T09:39:20.243Z,22.58
2019-04-03T09:40:21.723Z,22.59
2019-04-03T09:41:23.127Z,22.58
2019-04-03T09:42:24.588Z,22.61
2019-04-03T09:43:26.014Z,22.54
2019-04-03T09:44:27.581Z,22.61
2019-04-03T09:45:29.188Z,22.57
2019-04-03T09:46:31.561Z,22.59
2019-04-03T09:47:34.785Z,22.61
2019-04-03T09:48:36.793Z,22.56
2019-04-03T09:49:42.647Z,22.57
2019-04-03T09:50:42.229Z,22.55
2019-04-03T09:51:43.622Z,22.61
2019-04-03T09:52:49.402Z,22.72
2019-04-03T09:53:48.518Z,22.80
2019-04-03T09:54:49.899Z,22.79
2019-04-03T09:55:51.315Z,22.82
2019-04-03T09:57:02.933Z,22.86
2019-04-03T09:57:56.019Z,22.85
2019-04-03T09:58:57.427Z,22.76
2019-04-03T09:59:59.160Z,22.81
2019-04-03T10:01:00.765Z,22.75
2019-04-03T10:02:02.360Z,22.74
2019-04-03T10:03:05.837Z,22.74
2019-04-03T10:04:07.241Z,22.70
2019-04-03T10:05:08.950Z,22.68
2019-04-03T10:06:10.752Z,22.60
2019-04-03T10:07:13.226Z,22.57
2019-04-03T10:08:14.768Z,22.53
2019-04-03T10:09:16.505Z,22.52
2019-04-03T10:10:18.789Z,22.50
2019-04-03T10:11:20.874Z,22.51
2019-04-03T10:12:23.378Z,22.48
2019-04-03T10:13:26.309Z,22.46
2019-04-03T10:14:28.939Z,22.44
2019-04-03T10:15:31.226Z,22.49
2019-04-03T10:16:35.553Z,22.50
2019-04-03T10:17:38.328Z,22.53
2019-04-03T10:18:41.733Z,22.53
2019-04-03T10:19:45.900Z,22.50
2019-04-03T10:20:48.799Z,22.54
2019-04-03T10:21:51.832Z,22.51
2019-04-03T10:22:53.983Z,22.55
2019-04-03T10:23:59.107Z,22.51
2019-04-03T10:25:00.754Z,22.57
2019-04-03T10:26:03.447Z,22.52
2019-04-03T10:27:05.116Z,22.50
2019-04-03T10:28:06.827Z,22.49
2019-04-03T10:29:08.251Z,22.54
2019-04-03T10:30:12.265Z,22.50
2019-04-03T10:31:13.818Z,22.50
2019-04-03T10:32:16.286Z,22.48
2019-04-03T10:33:18.297Z,22.52
2019-04-03T10:34:19.721Z,22.56
2019-04-03T10:35:21.135Z,22.61
2019-04-03T10:36:22.985Z,22.61
2019-04-03T10:37:24.633Z,22.59
2019-04-03T10:38:26.309Z,22.62
2019-04-03T10:39:27.755Z,22.64
2019-04-03T10:40:29.154Z,22.64
2019-04-03T10:41:30.547Z,22.61
2019-04-03T10:42:31.991Z,22.63
2019-04-03T10:43:36.632Z,22.65
2019-04-03T10:44:36.852Z,22.67
2019-04-03T10:45:38.300Z,22.66
2019-04-03T10:46:39.970Z,22.67
2019-04-03T10:47:44.050Z,22.63
2019-04-03T10:48:45.991Z,22.67
2019-04-03T10:49:47.429Z,22.66
2019-04-03T10:50:49.279Z,22.68
2019-04-03T10:51:50.770Z,22.65
2019-04-03T10:52:52.322Z,22.72
2019-04-03T10:53:54.230Z,22.69
2019-04-03T10:54:56.825Z,22.67
2019-04-03T10:55:59.838Z,22.70
2019-04-03T10:57:03.423Z,22.69
2019-04-03T10:58:07.517Z,22.71
2019-04-03T10:59:11.430Z,22.74
2019-04-03T11:00:12.413Z,22.73
2019-04-03T11:01:13.809Z,22.74
2019-04-03T11:02:16.310Z,22.76
2019-04-03T11:03:17.753Z,22.74
2019-04-03T11:04:19.168Z,22.78
2019-04-03T11:05:20.577Z,22.77
2019-04-03T11:06:22.366Z,22.76
2019-04-03T11:07:23.815Z,22.73
2019-04-03T11:08:25.252Z,22.72
2019-04-03T11:09:26.857Z,22.73
2019-04-03T11:10:28.263Z,22.75
2019-04-03T11:11:30.209Z,22.75
2019-04-03T11:12:32.574Z,22.73
2019-04-03T11:13:34.799Z,22.77
2019-04-03T11:14:36.947Z,22.73
2019-04-03T11:15:39.825Z,22.78
2019-04-03T11:16:41.706Z,22.79
2019-04-03T11:17:43.177Z,22.78
2019-04-03T11:18:56.812Z,22.80
2019-04-03T11:19:47.883Z,22.78
2019-04-03T11:20:49.283Z,22.83
2019-04-03T11:21:50.915Z,22.80
2019-04-03T11:23:04.085Z,22.82
2019-04-03T11:23:55.932Z,22.81
2019-04-03T11:24:57.586Z,22.83
2019-04-03T11:25:59.408Z,22.83
2019-04-03T11:27:01.036Z,22.84
2019-04-03T11:28:05.019Z,22.83
2019-04-03T11:29:08.823Z,22.87
2019-04-03T11:30:12.384Z,22.87
2019-04-03T11:31:24.995Z,22.90
2019-04-03T11:32:17.930Z,22.88
2019-04-03T11:33:19.319Z,22.91
2019-04-03T11:34:21.333Z,22.91
2019-04-03T11:35:22.950Z,22.93
2019-04-03T11:36:26.001Z,22.97
2019-04-03T11:37:27.919Z,22.99
2019-04-03T11:38:29.949Z,22.95
2019-04-03T11:39:31.615Z,22.97
2019-04-03T11:40:33.024Z,22.96
2019-04-03T11:41:34.529Z,22.99
2019-04-03T11:42:35.984Z,23.01
2019-04-03T11:43:37.428Z,22.98
2019-04-03T11:44:38.851Z,23.01
2019-04-03T11:45:40.996Z,23.01
2019-04-03T11:46:42.444Z,23.02
2019-04-03T11:47:46.200Z,23.00
2019-04-03T11:48:48.382Z,23.01
2019-04-03T11:49:52.519Z,22.99
2019-04-03T11:50:56.115Z,23.01
2019-04-03T11:51:57.102Z,23.02
2019-04-03T11:53:01.212Z,23.00
2019-04-03T11:54:02.302Z,23.02
2019-04-03T11:55:05.103Z,22.98
2019-04-03T11:56:06.647Z,23.01
2019-04-03T11:57:08.089Z,23.00
2019-04-03T11:58:09.495Z,22.98
2019-04-03T11:59:11.018Z,23.01
2019-04-03T12:00:14.707Z,22.98
2019-04-03T12:01:16.837Z,23.03
2019-04-03T12:02:18.690Z,23.02
2019-04-03T12:03:20.071Z,23.02
2019-04-03T12:04:21.703Z,23.00
2019-04-03T12:05:23.136Z,23.04
2019-04-03T12:06:26.442Z,23.04
2019-04-03T12:07:28.261Z,23.03
2019-04-03T12:08:29.704Z,23.07
2019-04-03T12:09:32.396Z,23.07
2019-04-03T12:10:35.123Z,23.07
2019-04-03T12:11:38.402Z,23.10
2019-04-03T12:12:42.129Z,23.04
2019-04-03T12:13:45.594Z,23.07
2019-04-03T12:14:48.978Z,23.07
2019-04-03T12:15:53.200Z,23.07
2019-04-03T12:16:56.933Z,23.07
2019-04-03T12:17:57.027Z,23.13
2019-04-03T12:18:58.537Z,23.14
2019-04-03T12:20:00.982Z,23.17
2019-04-03T12:21:03.500Z,23.16
2019-04-03T12:22:04.930Z,23.18
2019-04-03T12:23:06.327Z,23.18
2019-04-03T12:24:08.142Z,23.21
2019-04-03T12:25:10.354Z,23.20
2019-04-03T12:26:12.539Z,23.21
2019-04-03T12:27:14.834Z,23.22
2019-04-03T12:28:18.420Z,23.24
2019-04-03T12:29:21.466Z,23.21
2019-04-03T12:30:23.062Z,23.22
2019-04-03T12:31:24.688Z,23.26
2019-04-03T12:32:36.586Z,23.26
2019-04-03T12:33:29.430Z,23.21
2019-04-03T12:34:30.848Z,23.22
2019-04-03T12:35:32.309Z,23.22
2019-04-03T12:36:33.751Z,23.24
2019-04-03T12:37:35.179Z,23.28
2019-04-03T12:38:36.665Z,23.31
2019-04-03T12:39:38.088Z,23.29
2019-04-03T12:40:41.390Z,23.31
2019-04-03T12:41:43.610Z,23.33
2019-04-03T12:42:45.771Z,23.30
2019-04-03T12:43:49.979Z,23.29
2019-04-03T12:44:54.052Z,23.31
2019-04-03T12:45:56.162Z,23.29
2019-04-03T12:46:58.325Z,23.30
2019-04-03T12:47:59.943Z,23.28
2019-04-03T12:49:01.822Z,23.34
2019-04-03T12:50:06.870Z,23.34
2019-04-03T12:51:09.006Z,23.32
2019-04-03T12:52:10.905Z,23.33
2019-04-03T12:53:12.290Z,23.31
2019-04-03T12:54:14.189Z,23.32
2019-04-03T12:55:15.688Z,23.34
2019-04-03T12:56:17.220Z,23.34
2019-04-03T12:57:19.134Z,23.38
2019-04-03T12:58:21.109Z,23.36
2019-04-03T12:59:22.842Z,23.36
2019-04-03T13:00:24.706Z,23.39
2019-04-03T13:01:26.717Z,23.38
2019-04-03T13:02:28.202Z,23.39
2019-04-03T13:03:29.879Z,23.39
2019-04-03T13:04:32.472Z,23.39
2019-04-03T13:05:36.317Z,23.38
2019-04-03T13:06:40.569Z,23.40
2019-04-03T13:07:40.956Z,23.40
2019-04-03T13:08:42.790Z,23.39
2019-04-03T13:09:44.398Z,23.41
2019-04-03T13:10:48.730Z,23.42
2019-04-03T13:11:50.476Z,23.44
2019-04-03T13:12:54.715Z,23.41
2019-04-03T13:13:58.859Z,23.42
2019-04-03T13:14:59.308Z,23.44
2019-04-03T13:16:01.544Z,23.42
2019-04-03T13:17:03.075Z,23.44
2019-04-03T13:18:04.572Z,23.43
2019-04-03T13:19:05.956Z,23.41
2019-04-03T13:20:08.061Z,23.47